Time;durP1;ratioP1;P1;durP2;ratioP2;P2;SDS_P1;SDS_P2;PMS_P1;PMS_P2;Temp;Humidity;BMP_temperature;BMP_pressure;BME280_temperature;BME280_humidity;BME280_pressure;Samples;Min_cycle;Max_cycle;Signal;HPM_P1;HPM_P2
2023/07/20 00:00:13;;;;;;;17.08;3.33;;;;;;;;;;4885513;29;20056;-83
2023/07/20 00:03:16;;;;;;;12.32;3.38;;;;;;;;;;4878164;29;20406;-83
2023/07/20 00:06:20;;;;;;;13.48;3.60;;;;;;;;;;4891568;29;20052;-84
2023/07/20 00:09:41;;;;;;;9.88;3.65;;;;;;;;;;4881815;29;20399;-83
2023/07/20 00:13:21;;;;;;;11.80;4.35;;;;;;;;;;4887699;29;20048;-84
2023/07/20 00:17:12;;;;;;;9.85;3.03;;;;;;;;;;4888386;29;20052;-84
2023/07/20 00:24:14;;;;;;;7.10;2.80;;;;;;;;;;4900348;29;20041;-84
2023/07/20 00:27:19;;;;;;;9.45;2.97;;;;;;;;;;4884958;29;20052;-83
2023/07/20 00:30:17;;;;;;;11.10;3.17;;;;;;;;;;4884975;29;20056;-83
2023/07/20 00:33:28;;;;;;;17.50;3.33;;;;;;;;;;4888404;29;20056;-84
2023/07/20 00:36:14;;;;;;;8.45;3.58;;;;;;;;;;4891319;29;20053;-83
2023/07/20 00:39:01;;;;;;;11.75;2.70;;;;;;;;;;4890990;29;20053;-83
2023/07/20 00:41:47;;;;;;;12.60;3.75;;;;;;;;;;4891229;29;20045;-82
2023/07/20 00:44:32;;;;;;;8.90;3.08;;;;;;;;;;4890925;29;20048;-83
2023/07/20 00:47:18;;;;;;;8.52;2.80;;;;;;;;;;4899045;29;20060;-83
2023/07/20 00:50:05;;;;;;;11.55;3.72;;;;;;;;;;4898631;29;20044;-83
2023/07/20 00:52:51;;;;;;;13.25;3.38;;;;;;;;;;4890857;29;20406;-82
2023/07/20 00:55:37;;;;;;;8.32;3.30;;;;;;;;;;4890905;29;20064;-82
2023/07/20 00:58:32;;;;;;;8.40;3.60;;;;;;;;;;4877776;29;20056;-83
2023/07/20 01:01:30;;;;;;;9.63;3.45;;;;;;;;;;4890983;29;20487;-82
2023/07/20 01:04:15;;;;;;;9.23;3.42;;;;;;;;;;4894210;29;20045;-82
2023/07/20 01:07:14;;;;;;;7.00;3.47;;;;;;;;;;4892068;29;20044;-84
2023/07/20 01:10:20;;;;;;;8.63;3.85;;;;;;;;;;4898529;29;20040;-85
2023/07/20 01:13:09;;;;;;;7.97;3.63;;;;;;;;;;4891516;29;20057;-84
2023/07/20 01:16:01;;;;;;;12.55;4.03;;;;;;;;;;4880985;29;20044;-84
2023/07/20 01:18:46;;;;;;;10.15;3.40;;;;;;;;;;4903876;29;20048;-84
2023/07/20 01:21:39;;;;;;;10.32;3.15;;;;;;;;;;4902273;29;20056;-85
2023/07/20 01:24:49;;;;;;;8.05;3.05;;;;;;;;;;4881882;29;20040;-84
2023/07/20 01:28:03;;;;;;;12.93;3.53;;;;;;;;;;4888580;29;20045;-85
2023/07/20 01:30:56;;;;;;;10.53;3.23;;;;;;;;;;4875020;29;20045;-85
2023/07/20 01:33:42;;;;;;;8.60;3.30;;;;;;;;;;4908865;29;20402;-84
2023/07/20 01:36:30;;;;;;;13.38;3.40;;;;;;;;;;4903353;29;20041;-85
2023/07/20 01:39:16;;;;;;;10.68;3.47;;;;;;;;;;4881264;29;20399;-84
2023/07/20 01:42:02;;;;;;;14.93;3.35;;;;;;;;;;4895763;29;20053;-84
2023/07/20 01:44:47;;;;;;;18.35;3.85;;;;;;;;;;4903242;29;20053;-84
2023/07/20 01:47:32;;;;;;;11.60;3.60;;;;;;;;;;4901683;29;20040;-82
2023/07/20 01:50:18;;;;;;;10.40;3.45;;;;;;;;;;4901883;29;20430;-82
2023/07/20 01:53:04;;;;;;;7.03;3.55;;;;;;;;;;4901429;29;20045;-81
2023/07/20 01:55:49;;;;;;;11.82;3.47;;;;;;;;;;4894048;29;20052;-82
2023/07/20 01:58:35;;;;;;;11.13;3.80;;;;;;;;;;4893889;29;20040;-82
2023/07/20 02:01:21;;;;;;;13.07;3.75;;;;;;;;;;4901924;29;20045;-81
2023/07/20 02:04:09;;;;;;;9.10;4.28;;;;;;;;;;4901376;29;20053;-82
2023/07/20 02:06:54;;;;;;;12.98;4.05;;;;;;;;;;4881051;29;20045;-81
2023/07/20 02:09:39;;;;;;;8.80;3.67;;;;;;;;;;4893485;29;20049;-82
2023/07/20 02:12:26;;;;;;;11.07;4.35;;;;;;;;;;4906560;29;20414;-82
2023/07/20 02:15:13;;;;;;;10.80;3.63;;;;;;;;;;4887570;29;20045;-82
2023/07/20 02:17:58;;;;;;;11.88;3.95;;;;;;;;;;4901240;29;20052;-82
2023/07/20 02:20:45;;;;;;;9.30;3.53;;;;;;;;;;4901173;29;20048;-83
2023/07/20 02:23:30;;;;;;;10.93;3.35;;;;;;;;;;4906501;29;20056;-83
2023/07/20 02:26:16;;;;;;;11.52;3.42;;;;;;;;;;4906891;29;20037;-81
2023/07/20 02:29:04;;;;;;;10.55;3.50;;;;;;;;;;4893350;29;20053;-82
2023/07/20 02:31:50;;;;;;;12.77;3.42;;;;;;;;;;4901107;29;20403;-82
2023/07/20 02:34:36;;;;;;;8.60;4.00;;;;;;;;;;4900940;29;20049;-82
2023/07/20 02:37:21;;;;;;;12.63;3.40;;;;;;;;;;4907512;29;20056;-81
2023/07/20 02:40:08;;;;;;;11.88;3.50;;;;;;;;;;4892910;29;20049;-81
2023/07/20 02:42:53;;;;;;;10.70;3.28;;;;;;;;;;4901117;29;20048;-82
2023/07/20 02:45:42;;;;;;;9.85;3.20;;;;;;;;;;4886806;29;20045;-82
2023/07/20 02:48:29;;;;;;;10.90;3.50;;;;;;;;;;4886682;29;20048;-81
2023/07/20 02:51:14;;;;;;;14.88;3.90;;;;;;;;;;4905965;29;20068;-82
2023/07/20 02:54:00;;;;;;;11.75;5.15;;;;;;;;;;4892907;29;20052;-82
2023/07/20 02:56:45;;;;;;;18.05;6.68;;;;;;;;;;4893022;29;20399;-81
2023/07/20 02:59:31;;;;;;;15.77;4.95;;;;;;;;;;4905824;29;20044;-81
2023/07/20 03:02:16;;;;;;;13.25;4.53;;;;;;;;;;4900555;29;20048;-81
2023/07/20 03:05:05;;;;;;;12.82;4.85;;;;;;;;;;4887024;29;20057;-81
2023/07/20 03:07:51;;;;;;;16.35;5.60;;;;;;;;;;4892433;29;20044;-81
2023/07/20 03:10:40;;;;;;;13.68;4.85;;;;;;;;;;4906702;29;20049;-82
2023/07/20 03:13:26;;;;;;;10.20;5.03;;;;;;;;;;4900605;29;20483;-81
2023/07/20 03:16:15;;;;;;;12.90;4.85;;;;;;;;;;4892314;29;20052;-82
2023/07/20 03:19:01;;;;;;;10.23;3.70;;;;;;;;;;4906121;29;20041;-80
2023/07/20 03:21:48;;;;;;;11.32;3.90;;;;;;;;;;4892654;29;20041;-78
2023/07/20 03:24:33;;;;;;;15.98;3.70;;;;;;;;;;4900142;29;20044;-79
2023/07/20 03:27:18;;;;;;;11.55;3.55;;;;;;;;;;4900309;29;20387;-78
2023/07/20 03:30:07;;;;;;;18.70;4.07;;;;;;;;;;4906408;29;20403;-78
2023/07/20 03:32:52;;;;;;;18.50;3.88;;;;;;;;;;4905285;29;20487;-78
2023/07/20 03:35:37;;;;;;;11.70;3.92;;;;;;;;;;4899762;29;20049;-79
2023/07/20 03:38:24;;;;;;;20.75;4.35;;;;;;;;;;4878584;29;20053;-79
2023/07/20 03:41:11;;;;;;;18.05;4.53;;;;;;;;;;4892258;29;20483;-80
2023/07/20 03:43:56;;;;;;;10.23;5.00;;;;;;;;;;4905231;29;20403;-79
2023/07/20 03:46:43;;;;;;;17.38;5.47;;;;;;;;;;4886028;29;20478;-79
2023/07/20 03:49:28;;;;;;;13.85;5.32;;;;;;;;;;4878392;29;20497;-79
2023/07/20 03:52:14;;;;;;;14.98;5.43;;;;;;;;;;4891742;29;20045;-79
2023/07/20 03:54:59;;;;;;;12.38;4.10;;;;;;;;;;4891784;29;20056;-79
2023/07/20 03:57:56;;;;;;;16.35;4.55;;;;;;;;;;4899343;29;20045;-80
2023/07/20 04:00:46;;;;;;;17.33;5.20;;;;;;;;;;4891641;29;20056;-81
2023/07/20 04:03:31;;;;;;;14.73;5.00;;;;;;;;;;4901828;29;20056;-81
2023/07/20 04:06:17;;;;;;;12.00;5.22;;;;;;;;;;4903628;29;20402;-77
2023/07/20 04:09:03;;;;;;;16.88;5.20;;;;;;;;;;4891330;29;20048;-78
2023/07/20 04:11:49;;;;;;;14.20;4.55;;;;;;;;;;4899188;29;20483;-80
2023/07/20 04:14:34;;;;;;;20.40;4.80;;;;;;;;;;4905724;29;20040;-78
2023/07/20 04:17:20;;;;;;;12.50;5.07;;;;;;;;;;4891356;29;20056;-79
2023/07/20 04:20:05;;;;;;;18.27;6.82;;;;;;;;;;4899117;29;20048;-78
2023/07/20 04:22:50;;;;;;;18.30;8.07;;;;;;;;;;4899341;29;20041;-81
2023/07/20 04:25:39;;;;;;;23.25;9.48;;;;;;;;;;4904435;29;20048;-82
2023/07/20 04:28:25;;;;;;;20.75;11.07;;;;;;;;;;4891522;29;20045;-81
2023/07/20 04:31:14;;;;;;;16.38;9.48;;;;;;;;;;4891340;29;20048;-82
2023/07/20 04:34:02;;;;;;;25.70;9.68;;;;;;;;;;4894087;29;20467;-82
2023/07/20 04:36:47;;;;;;;16.05;8.45;;;;;;;;;;4906179;29;20044;-81
2023/07/20 04:39:33;;;;;;;14.90;7.95;;;;;;;;;;4898965;29;20052;-80
2023/07/20 04:42:24;;;;;;;17.45;6.53;;;;;;;;;;4891920;29;20048;-82
2023/07/20 04:45:10;;;;;;;12.77;5.72;;;;;;;;;;4899046;29;20056;-82
2023/07/20 04:47:56;;;;;;;13.40;4.60;;;;;;;;;;4904351;29;20040;-82
2023/07/20 04:50:46;;;;;;;13.70;5.07;;;;;;;;;;4891601;29;20048;-82
2023/07/20 04:53:32;;;;;;;19.63;4.82;;;;;;;;;;4905493;29;20041;-80
2023/07/20 04:56:18;;;;;;;20.67;5.10;;;;;;;;;;4898810;29;20052;-81
2023/07/20 04:59:04;;;;;;;17.80;4.65;;;;;;;;;;4891316;29;20057;-80
2023/07/20 05:01:49;;;;;;;9.02;3.65;;;;;;;;;;4891318;29;20394;-81
2023/07/20 05:04:36;;;;;;;10.68;3.55;;;;;;;;;;4886316;29;20049;-81
2023/07/20 05:07:22;;;;;;;11.80;4.90;;;;;;;;;;4899705;29;20048;-80
2023/07/20 05:10:08;;;;;;;18.42;5.88;;;;;;;;;;4890654;29;20048;-80
2023/07/20 05:13:19;;;;;;;16.15;5.40;;;;;;;;;;4891318;29;20052;-84
2023/07/20 05:16:05;;;;;;;16.13;6.38;;;;;;;;;;4909452;29;20057;-81
2023/07/20 05:18:52;;;;;;;11.60;6.45;;;;;;;;;;4902811;29;20044;-81
2023/07/20 05:21:42;;;;;;;14.13;6.80;;;;;;;;;;4880427;29;20045;-82
2023/07/20 05:24:28;;;;;;;16.20;7.20;;;;;;;;;;4890549;29;20494;-82
2023/07/20 05:27:14;;;;;;;16.67;6.80;;;;;;;;;;4899867;29;20044;-82
2023/07/20 05:29:59;;;;;;;14.35;6.95;;;;;;;;;;4898834;29;20052;-83
2023/07/20 05:32:47;;;;;;;12.85;6.88;;;;;;;;;;4917857;29;20041;-81
2023/07/20 05:35:32;;;;;;;14.18;6.63;;;;;;;;;;4904804;29;20044;-82
2023/07/20 05:38:18;;;;;;;15.48;6.20;;;;;;;;;;4898238;29;20402;-82
2023/07/20 05:41:04;;;;;;;11.55;6.93;;;;;;;;;;4898551;29;20049;-83
2023/07/20 05:43:49;;;;;;;11.48;6.82;;;;;;;;;;4884151;29;20490;-83
2023/07/20 05:46:35;;;;;;;16.35;7.43;;;;;;;;;;4884471;29;20044;-82
2023/07/20 05:49:20;;;;;;;11.40;6.47;;;;;;;;;;4890535;29;20048;-84
2023/07/20 05:52:06;;;;;;;11.68;5.97;;;;;;;;;;4898258;29;20048;-84
2023/07/20 05:54:52;;;;;;;9.95;4.97;;;;;;;;;;4890703;29;20053;-83
2023/07/20 05:57:41;;;;;;;11.25;5.32;;;;;;;;;;4898055;29;20092;-84
2023/07/20 06:00:26;;;;;;;13.10;5.07;;;;;;;;;;4877183;29;20056;-84
2023/07/20 06:03:12;;;;;;;12.40;5.85;;;;;;;;;;4900586;29;20048;-85
2023/07/20 06:05:59;;;;;;;17.52;5.82;;;;;;;;;;4900845;29;20044;-86
2023/07/20 06:08:45;;;;;;;13.52;5.68;;;;;;;;;;4902132;29;20056;-82
2023/07/20 06:11:31;;;;;;;11.55;5.75;;;;;;;;;;4901695;29;20048;-82
2023/07/20 06:14:16;;;;;;;14.13;6.38;;;;;;;;;;4902104;29;20482;-81
2023/07/20 06:17:01;;;;;;;10.93;5.38;;;;;;;;;;4901775;29;20044;-80
2023/07/20 06:19:47;;;;;;;14.00;5.72;;;;;;;;;;4901746;29;20052;-80
2023/07/20 06:22:32;;;;;;;10.60;5.25;;;;;;;;;;4901150;29;20052;-80
2023/07/20 06:25:18;;;;;;;11.15;5.50;;;;;;;;;;4901130;29;20403;-79
2023/07/20 06:28:04;;;;;;;17.77;6.00;;;;;;;;;;4901036;29;20044;-79
2023/07/20 06:30:51;;;;;;;12.65;6.25;;;;;;;;;;4901091;29;20049;-80
2023/07/20 06:33:37;;;;;;;17.60;5.68;;;;;;;;;;4901129;29;20045;-79
2023/07/20 06:36:22;;;;;;;13.32;6.00;;;;;;;;;;4901234;29;20049;-80
2023/07/20 06:39:07;;;;;;;16.90;6.20;;;;;;;;;;4879807;29;20044;-82
2023/07/20 06:41:52;;;;;;;12.60;6.43;;;;;;;;;;4901374;29;20395;-81
2023/07/20 06:44:39;;;;;;;17.73;6.85;;;;;;;;;;4907322;29;20053;-81
2023/07/20 06:47:25;;;;;;;17.45;8.13;;;;;;;;;;4901653;29;20056;-76
2023/07/20 06:50:10;;;;;;;18.17;7.20;;;;;;;;;;4906825;29;20048;-76
2023/07/20 06:52:56;;;;;;;16.35;9.10;;;;;;;;;;4900248;29;20048;-77
2023/07/20 06:55:44;;;;;;;11.57;5.63;;;;;;;;;;4892751;29;20422;-76
2023/07/20 06:58:30;;;;;;;10.27;5.63;;;;;;;;;;4900344;29;20044;-73
2023/07/20 07:01:16;;;;;;;15.75;6.40;;;;;;;;;;4900722;29;20045;-74
2023/07/20 07:04:02;;;;;;;13.27;6.60;;;;;;;;;;4899732;29;20052;-74
2023/07/20 07:06:48;;;;;;;16.83;8.07;;;;;;;;;;4900246;29;20044;-76
2023/07/20 07:09:33;;;;;;;23.98;12.00;;;;;;;;;;4892536;29;20074;-79
2023/07/20 07:12:19;;;;;;;17.70;12.57;;;;;;;;;;4899446;29;20041;-79
2023/07/20 07:15:07;;;;;;;16.67;9.50;;;;;;;;;;4899567;29;20478;-79
2023/07/20 07:17:54;;;;;;;19.40;10.52;;;;;;;;;;4900223;29;20040;-78
2023/07/20 07:25:03;;;;;;;11.48;5.20;;;;;;;;;;4897384;29;20040;-78
2023/07/20 07:27:47;;;;;;;12.10;4.60;;;;;;;;;;4906144;29;20052;-75
2023/07/20 07:30:33;;;;;;;14.75;5.53;;;;;;;;;;4906178;29;20048;-74
2023/07/20 07:33:19;;;;;;;17.70;9.35;;;;;;;;;;4900102;29;20041;-77
2023/07/20 07:36:04;;;;;;;7.13;3.50;;;;;;;;;;4899828;29;20049;-73
2023/07/20 07:38:50;;;;;;;11.35;3.47;;;;;;;;;;4899985;29;20044;-75
2023/07/20 07:41:36;;;;;;;8.35;3.80;;;;;;;;;;4905804;29;20395;-75
2023/07/20 07:44:21;;;;;;;9.25;3.40;;;;;;;;;;4899725;29;20040;-74
2023/07/20 07:47:07;;;;;;;11.30;4.18;;;;;;;;;;4899553;29;20053;-75
2023/07/20 07:49:52;;;;;;;10.27;3.80;;;;;;;;;;4905698;29;20403;-74
2023/07/20 07:52:38;;;;;;;10.55;3.55;;;;;;;;;;4905737;29;20041;-74
2023/07/20 07:55:26;;;;;;;11.73;3.67;;;;;;;;;;4898943;29;20486;-74
2023/07/20 07:58:11;;;;;;;6.15;3.20;;;;;;;;;;4899505;29;20057;-75
2023/07/20 08:00:57;;;;;;;9.05;3.60;;;;;;;;;;4905932;29;20044;-76
2023/07/20 08:03:42;;;;;;;8.20;3.03;;;;;;;;;;4888946;29;20053;-76
2023/07/20 08:06:27;;;;;;;9.38;3.08;;;;;;;;;;4898702;29;20052;-75
2023/07/20 08:09:13;;;;;;;9.80;2.60;;;;;;;;;;4904885;29;20053;-75
2023/07/20 08:11:59;;;;;;;13.50;2.80;;;;;;;;;;4898612;29;20041;-75
2023/07/20 08:14:44;;;;;;;9.77;2.78;;;;;;;;;;4899980;29;20056;-77
2023/07/20 08:17:30;;;;;;;6.35;2.78;;;;;;;;;;4900928;29;20040;-77
2023/07/20 08:20:17;;;;;;;52.20;40.30;;;;;;;;;;4905756;29;20052;-77
2023/07/20 08:23:03;;;;;;;11.38;6.20;;;;;;;;;;4900206;29;20033;-76
2023/07/20 08:25:49;;;;;;;9.10;2.33;;;;;;;;;;4905042;29;20044;-76
2023/07/20 08:28:35;;;;;;;30.00;14.10;;;;;;;;;;4905701;29;20151;-77
2023/07/20 08:31:21;;;;;;;11.23;6.78;;;;;;;;;;4898636;29;20486;-76
2023/07/20 08:34:06;;;;;;;7.13;1.60;;;;;;;;;;4884220;29;20040;-79
2023/07/20 08:36:51;;;;;;;4.97;2.00;;;;;;;;;;4897922;29;20045;-78
2023/07/20 08:39:37;;;;;;;3.38;1.90;;;;;;;;;;4891004;29;20040;-79
2023/07/20 08:42:24;;;;;;;4.35;1.88;;;;;;;;;;4899004;29;20044;-79
2023/07/20 08:45:11;;;;;;;6.07;2.05;;;;;;;;;;4871945;29;20406;-77
2023/07/20 08:47:58;;;;;;;5.82;1.80;;;;;;;;;;4898682;29;20048;-79
2023/07/20 08:50:45;;;;;;;8.90;2.47;;;;;;;;;;4898583;29;20044;-78
2023/07/20 08:53:32;;;;;;;9.13;3.00;;;;;;;;;;4899270;29;20053;-78
2023/07/20 08:56:18;;;;;;;4.38;2.72;;;;;;;;;;4898897;29;20044;-79
2023/07/20 08:59:04;;;;;;;9.40;3.00;;;;;;;;;;4904390;29;20076;-78
2023/07/20 09:01:52;;;;;;;9.27;2.97;;;;;;;;;;4898771;29;20048;-79
2023/07/20 09:04:37;;;;;;;7.25;3.60;;;;;;;;;;4898267;29;20049;-79
2023/07/20 09:07:24;;;;;;;7.38;2.83;;;;;;;;;;4905572;29;20052;-78
2023/07/20 09:10:11;;;;;;;17.55;4.30;;;;;;;;;;4899079;29;20045;-78
2023/07/20 09:12:58;;;;;;;9.32;2.63;;;;;;;;;;4904465;29;20041;-79
2023/07/20 09:15:50;;;;;;;8.00;3.28;;;;;;;;;;4904810;29;20049;-79
2023/07/20 09:18:35;;;;;;;8.80;3.08;;;;;;;;;;4884287;29;20498;-79
2023/07/20 09:21:20;;;;;;;5.90;2.88;;;;;;;;;;4898850;29;20052;-80
2023/07/20 09:24:06;;;;;;;9.90;3.45;;;;;;;;;;4899003;29;20053;-79
2023/07/20 09:26:52;;;;;;;8.57;3.70;;;;;;;;;;4905372;29;20478;-77
2023/07/20 09:29:51;;;;;;;5.53;2.65;;;;;;;;;;4904774;29;20048;-81
2023/07/20 09:32:43;;;;;;;5.75;2.40;;;;;;;;;;4904813;29;20048;-78
2023/07/20 09:35:29;;;;;;;7.25;2.50;;;;;;;;;;4899682;29;20053;-78
2023/07/20 09:38:15;;;;;;;6.72;3.08;;;;;;;;;;4908018;29;20040;-80
2023/07/20 09:40:59;;;;;;;7.30;2.67;;;;;;;;;;4901819;29;20044;-78
2023/07/20 09:43:47;;;;;;;8.25;3.17;;;;;;;;;;4909501;29;20048;-80
2023/07/20 09:46:46;;;;;;;6.35;2.40;;;;;;;;;;4908761;29;20048;-78
2023/07/20 09:49:42;;;;;;;15.98;2.92;;;;;;;;;;4902047;29;20052;-80
2023/07/20 09:52:27;;;;;;;6.50;2.70;;;;;;;;;;4908458;29;20048;-79
2023/07/20 09:55:28;;;;;;;9.98;2.85;;;;;;;;;;4901716;29;20053;-79
2023/07/20 09:58:29;;;;;;;4.70;2.47;;;;;;;;;;4904439;29;20044;-81
2023/07/20 10:01:21;;;;;;;7.25;2.50;;;;;;;;;;4923811;29;20048;-82
2023/07/20 10:04:09;;;;;;;6.18;2.47;;;;;;;;;;4901746;29;20052;-80
2023/07/20 10:07:00;;;;;;;5.80;2.45;;;;;;;;;;4901363;29;20053;-80
2023/07/20 10:09:46;;;;;;;7.65;2.72;;;;;;;;;;4901537;29;20036;-80
2023/07/20 10:12:32;;;;;;;5.82;2.63;;;;;;;;;;4901463;29;20044;-80
2023/07/20 10:15:34;;;;;;;5.32;2.25;;;;;;;;;;4901307;29;20040;-79
2023/07/20 10:18:30;;;;;;;7.20;2.33;;;;;;;;;;4901936;29;20056;-77
2023/07/20 10:21:18;;;;;;;6.68;2.67;;;;;;;;;;4900548;29;20048;-78
2023/07/20 10:24:04;;;;;;;8.35;3.45;;;;;;;;;;4901751;29;20049;-77
2023/07/20 10:26:49;;;;;;;12.05;3.10;;;;;;;;;;4893466;29;20044;-78
2023/07/20 10:29:34;;;;;;;5.35;2.50;;;;;;;;;;4887057;29;20045;-79
2023/07/20 10:32:20;;;;;;;4.82;2.30;;;;;;;;;;4901355;29;20044;-77
2023/07/20 10:35:13;;;;;;;8.80;3.03;;;;;;;;;;4907320;29;20501;-78
2023/07/20 10:38:03;;;;;;;4.33;2.60;;;;;;;;;;4907635;29;20052;-78
2023/07/20 10:40:55;;;;;;;4.97;2.60;;;;;;;;;;4893440;29;20283;-79
2023/07/20 10:43:45;;;;;;;8.90;2.90;;;;;;;;;;4896564;29;20060;-77
2023/07/20 10:46:40;;;;;;;5.15;2.53;;;;;;;;;;4891209;29;20048;-77
2023/07/20 10:49:26;;;;;;;5.63;2.42;;;;;;;;;;4898568;29;20052;-78
2023/07/20 10:52:12;;;;;;;4.60;2.53;;;;;;;;;;4899331;29;20491;-77
2023/07/20 10:55:11;;;;;;;4.90;2.47;;;;;;;;;;4900068;29;20454;-77
2023/07/20 10:58:14;;;;;;;5.68;2.50;;;;;;;;;;4900055;29;20049;-76
2023/07/20 11:01:01;;;;;;;6.07;2.47;;;;;;;;;;4906341;29;20064;-77
2023/07/20 11:03:50;;;;;;;8.55;2.50;;;;;;;;;;4899223;29;20053;-78
2023/07/20 11:06:38;;;;;;;6.03;2.25;;;;;;;;;;4899778;29;20052;-77
2023/07/20 11:09:26;;;;;;;6.05;2.60;;;;;;;;;;4899919;29;20044;-76
2023/07/20 11:12:18;;;;;;;14.13;2.75;;;;;;;;;;4905975;29;20056;-78
2023/07/20 11:15:04;;;;;;;3.65;2.33;;;;;;;;;;4900031;29;20040;-77
2023/07/20 11:17:49;;;;;;;4.57;2.58;;;;;;;;;;4899543;29;20060;-77
2023/07/20 11:20:34;;;;;;;4.72;2.25;;;;;;;;;;4906034;29;20040;-76
2023/07/20 11:23:21;;;;;;;6.20;2.25;;;;;;;;;;4885836;29;20491;-75
2023/07/20 11:26:06;;;;;;;6.00;2.30;;;;;;;;;;4899997;29;20499;-76
2023/07/20 11:28:51;;;;;;;6.00;2.05;;;;;;;;;;4905997;29;20036;-74
2023/07/20 11:31:41;;;;;;;6.50;2.38;;;;;;;;;;4905299;29;20634;-76
2023/07/20 11:34:27;;;;;;;4.00;2.13;;;;;;;;;;4899019;29;20045;-75
2023/07/20 11:37:13;;;;;;;7.22;2.40;;;;;;;;;;4905544;29;20048;-74
2023/07/20 11:39:59;;;;;;;6.90;2.60;;;;;;;;;;4905652;29;20406;-77
2023/07/20 11:42:45;;;;;;;4.43;2.20;;;;;;;;;;4905655;29;20053;-76
2023/07/20 11:45:32;;;;;;;5.53;2.35;;;;;;;;;;4890894;29;20044;-76
2023/07/20 11:48:17;;;;;;;6.22;2.13;;;;;;;;;;4905389;29;20048;-76
2023/07/20 11:51:13;;;;;;;10.27;3.50;;;;;;;;;;4905847;29;20498;-81
2023/07/20 11:54:08;;;;;;;5.72;2.50;;;;;;;;;;4899176;29;20045;-79
2023/07/20 11:56:55;;;;;;;9.07;2.60;;;;;;;;;;4905369;29;20056;-76
2023/07/20 12:00:11;;;;;;;4.47;2.20;;;;;;;;;;4898258;29;20053;-77
2023/07/20 12:02:59;;;;;;;4.75;2.40;;;;;;;;;;4896698;29;20036;-76
2023/07/20 12:05:46;;;;;;;4.70;2.60;;;;;;;;;;4904724;29;20044;-75
2023/07/20 12:08:32;;;;;;;4.00;2.30;;;;;;;;;;4898275;29;20061;-74
2023/07/20 12:11:36;;;;;;;6.90;2.50;;;;;;;;;;4899085;29;20040;-79
2023/07/20 12:14:25;;;;;;;6.55;2.78;;;;;;;;;;4903321;29;20052;-75
2023/07/20 12:17:10;;;;;;;5.45;2.65;;;;;;;;;;4907589;29;20049;-75
2023/07/20 12:19:58;;;;;;;6.85;2.38;;;;;;;;;;4890674;29;20049;-75
2023/07/20 12:22:43;;;;;;;5.43;2.53;;;;;;;;;;4904805;29;20052;-76
2023/07/20 12:25:41;;;;;;;5.38;2.55;;;;;;;;;;4899122;29;20482;-75
2023/07/20 12:28:26;;;;;;;5.30;2.58;;;;;;;;;;4906320;29;20056;-76
2023/07/20 12:31:13;;;;;;;4.95;2.47;;;;;;;;;;4905304;29;20041;-76
2023/07/20 12:33:58;;;;;;;4.38;2.92;;;;;;;;;;4904391;29;20494;-75
2023/07/20 12:36:43;;;;;;;5.93;2.55;;;;;;;;;;4898393;29;20056;-75
2023/07/20 12:39:29;;;;;;;4.85;2.55;;;;;;;;;;4904674;29;20052;-75
2023/07/20 12:42:16;;;;;;;6.55;3.00;;;;;;;;;;4897991;29;20049;-75
2023/07/20 12:45:01;;;;;;;5.30;2.35;;;;;;;;;;4898141;29;20041;-77
2023/07/20 12:47:46;;;;;;;7.65;2.90;;;;;;;;;;4897935;29;20052;-73
2023/07/20 12:50:58;;;;;;;6.32;3.20;;;;;;;;;;4898418;29;20048;-78
2023/07/20 12:53:44;;;;;;;5.70;2.90;;;;;;;;;;4897831;29;20049;-77
2023/07/20 12:56:29;;;;;;;4.78;2.83;;;;;;;;;;4898168;29;20045;-75
2023/07/20 12:59:14;;;;;;;3.88;2.58;;;;;;;;;;4897871;29;20049;-76
2023/07/20 13:02:00;;;;;;;6.35;2.85;;;;;;;;;;4898058;29;20052;-74
2023/07/20 13:04:46;;;;;;;7.68;2.85;;;;;;;;;;4883871;29;20057;-75
2023/07/20 13:07:36;;;;;;;5.95;2.83;;;;;;;;;;4904607;29;20053;-74
2023/07/20 13:10:21;;;;;;;5.70;2.60;;;;;;;;;;4898318;29;20498;-76
2023/07/20 13:13:09;;;;;;;3.72;2.63;;;;;;;;;;4902138;29;20052;-77
2023/07/20 13:15:55;;;;;;;14.45;12.70;;;;;;;;;;4901562;29;20519;-77
2023/07/20 13:18:40;;;;;;;5.15;2.90;;;;;;;;;;4907947;29;20053;-77
2023/07/20 13:21:25;;;;;;;79.72;66.47;;;;;;;;;;4907637;29;20325;-78
2023/07/20 13:24:10;;;;;;;24.05;17.63;;;;;;;;;;4901540;29;20406;-75
2023/07/20 13:26:57;;;;;;;66.13;56.95;;;;;;;;;;4903776;29;20041;-77
2023/07/20 13:29:43;;;;;;;22.98;16.38;;;;;;;;;;4893859;29;20411;-77
2023/07/20 13:32:28;;;;;;;10.20;7.68;;;;;;;;;;4901501;29;20040;-73
2023/07/20 13:35:14;;;;;;;13.52;8.68;;;;;;;;;;4901173;29;20056;-76
2023/07/20 13:37:59;;;;;;;5.07;3.20;;;;;;;;;;4901366;29;20482;-77
2023/07/20 13:40:45;;;;;;;7.97;3.97;;;;;;;;;;4907811;29;20052;-75
2023/07/20 13:43:30;;;;;;;5.72;3.13;;;;;;;;;;4907992;29;20045;-76
2023/07/20 13:46:16;;;;;;;9.43;3.30;;;;;;;;;;4901237;29;20064;-75
2023/07/20 13:49:02;;;;;;;6.13;3.47;;;;;;;;;;4907410;29;20041;-75
2023/07/20 13:51:47;;;;;;;5.15;3.03;;;;;;;;;;4907451;29;20052;-74
2023/07/20 13:54:32;;;;;;;5.53;2.83;;;;;;;;;;4907194;29;20052;-77
2023/07/20 13:57:18;;;;;;;5.55;2.78;;;;;;;;;;4901251;29;20053;-75
2023/07/20 14:00:04;;;;;;;6.38;3.50;;;;;;;;;;4900795;29;20044;-75
2023/07/20 14:02:59;;;;;;;5.75;3.30;;;;;;;;;;4900838;29;20399;-75
2023/07/20 14:05:43;;;;;;;8.45;3.15;;;;;;;;;;4907047;29;20390;-76
2023/07/20 14:08:30;;;;;;;7.53;2.95;;;;;;;;;;4900243;29;20402;-77
2023/07/20 14:11:16;;;;;;;6.45;3.25;;;;;;;;;;4899924;29;20052;-77
2023/07/20 14:14:06;;;;;;;9.27;3.15;;;;;;;;;;4900622;29;20049;-77
2023/07/20 14:16:57;;;;;;;6.45;2.70;;;;;;;;;;4905703;29;20044;-76
2023/07/20 14:19:45;;;;;;;7.72;3.00;;;;;;;;;;4899894;29;20064;-76
2023/07/20 14:22:31;;;;;;;4.63;2.88;;;;;;;;;;4898584;29;20044;-77
2023/07/20 14:25:16;;;;;;;5.72;3.38;;;;;;;;;;4906417;29;20490;-76
2023/07/20 14:28:02;;;;;;;8.02;2.83;;;;;;;;;;4907479;29;20048;-76
2023/07/20 14:30:47;;;;;;;6.68;3.05;;;;;;;;;;4902670;29;20048;-75
2023/07/20 14:33:32;;;;;;;6.57;3.25;;;;;;;;;;4900449;29;20045;-74
2023/07/20 14:36:18;;;;;;;5.50;2.83;;;;;;;;;;4899069;29;20052;-74
2023/07/20 14:39:05;;;;;;;5.72;3.05;;;;;;;;;;4899826;29;20044;-75
2023/07/20 14:41:51;;;;;;;4.45;2.70;;;;;;;;;;4899952;29;20060;-75
2023/07/20 14:44:36;;;;;;;5.45;3.35;;;;;;;;;;4905973;29;20048;-75
2023/07/20 14:47:21;;;;;;;6.78;3.53;;;;;;;;;;4899835;29;20399;-75
2023/07/20 14:50:07;;;;;;;6.80;2.97;;;;;;;;;;4906236;29;20060;-74
2023/07/20 14:52:53;;;;;;;13.07;3.22;;;;;;;;;;4900229;29;20049;-75
2023/07/20 14:55:38;;;;;;;6.95;3.00;;;;;;;;;;4906588;29;20398;-75
2023/07/20 14:58:24;;;;;;;4.78;3.00;;;;;;;;;;4899847;29;20037;-75
2023/07/20 15:01:10;;;;;;;9.38;3.47;;;;;;;;;;4899977;29;20494;-75
2023/07/20 15:03:56;;;;;;;6.53;3.30;;;;;;;;;;4882577;29;20041;-75
2023/07/20 15:06:42;;;;;;;8.50;3.30;;;;;;;;;;4863402;29;20042;-75
2023/07/20 15:09:31;;;;;;;5.13;2.75;;;;;;;;;;4869023;29;20045;-74
2023/07/20 15:12:19;;;;;;;4.85;3.10;;;;;;;;;;4868143;29;20053;-75
2023/07/20 15:15:07;;;;;;;6.80;3.00;;;;;;;;;;4862622;29;20050;-74
2023/07/20 15:17:55;;;;;;;8.43;3.35;;;;;;;;;;4863305;29;20400;-74
2023/07/20 15:20:53;;;;;;;7.80;3.00;;;;;;;;;;4867971;29;20045;-76
2023/07/20 15:23:45;;;;;;;5.38;3.15;;;;;;;;;;4869159;29;20046;-77
2023/07/20 15:26:43;;;;;;;6.72;3.20;;;;;;;;;;4862341;29;20041;-74
2023/07/20 15:29:29;;;;;;;8.93;3.58;;;;;;;;;;4862086;29;20041;-75
2023/07/20 15:32:18;;;;;;;7.70;3.03;;;;;;;;;;4862365;29;20049;-73
2023/07/20 15:35:05;;;;;;;7.43;2.92;;;;;;;;;;4860994;29;20062;-74
2023/07/20 15:37:51;;;;;;;6.10;3.20;;;;;;;;;;4868535;29;20045;-75
2023/07/20 15:40:36;;;;;;;5.55;3.13;;;;;;;;;;4867353;29;20049;-73
2023/07/20 15:43:22;;;;;;;5.75;3.08;;;;;;;;;;4861805;29;20041;-75
2023/07/20 15:46:20;;;;;;;8.23;3.40;;;;;;;;;;4867979;29;20045;-75
2023/07/20 15:49:05;;;;;;;6.20;3.03;;;;;;;;;;4862147;29;20045;-74
2023/07/20 15:51:51;;;;;;;6.22;3.30;;;;;;;;;;4867882;29;20492;-72
2023/07/20 15:54:45;;;;;;;6.38;3.20;;;;;;;;;;4867891;29;20049;-76
2023/07/20 15:57:30;;;;;;;6.82;3.05;;;;;;;;;;4868373;29;20053;-77
2023/07/20 16:00:16;;;;;;;5.40;3.30;;;;;;;;;;4861877;29;20042;-73
2023/07/20 16:03:05;;;;;;;5.07;3.28;;;;;;;;;;4866996;29;20049;-74
2023/07/20 16:05:52;;;;;;;7.38;3.08;;;;;;;;;;4866256;29;20387;-73
2023/07/20 16:08:38;;;;;;;7.90;3.05;;;;;;;;;;4861157;29;20050;-72
2023/07/20 16:11:24;;;;;;;4.32;3.08;;;;;;;;;;4861534;29;20073;-74
2023/07/20 16:14:09;;;;;;;5.95;2.95;;;;;;;;;;4861222;29;20061;-73
2023/07/20 16:16:55;;;;;;;7.30;3.05;;;;;;;;;;4861018;29;20416;-73
2023/07/20 16:19:40;;;;;;;7.15;3.25;;;;;;;;;;4867643;29;20049;-74
2023/07/20 16:22:27;;;;;;;6.28;3.13;;;;;;;;;;4861445;29;20491;-74
2023/07/20 16:25:13;;;;;;;4.32;2.70;;;;;;;;;;4861115;29;20049;-76
2023/07/20 16:27:58;;;;;;;4.70;2.67;;;;;;;;;;4866188;29;20054;-74
2023/07/20 16:30:44;;;;;;;9.73;3.20;;;;;;;;;;4867462;29;20049;-73
2023/07/20 16:33:29;;;;;;;5.43;3.00;;;;;;;;;;4861276;29;20037;-73
2023/07/20 16:36:16;;;;;;;6.60;2.85;;;;;;;;;;4861209;29;20053;-75
2023/07/20 16:39:03;;;;;;;7.38;3.20;;;;;;;;;;4859813;29;20395;-73
2023/07/20 16:41:48;;;;;;;5.05;3.05;;;;;;;;;;4860293;29;20053;-73
2023/07/20 16:44:34;;;;;;;7.90;3.35;;;;;;;;;;4867628;29;20044;-76
2023/07/20 16:47:21;;;;;;;6.63;3.13;;;;;;;;;;4861346;29;20395;-73